Zephyr Point, Nevada
Current Conditions -  °F | °C
As of 5:53 PM on Monday 24 Nov 2014 (Local Time) from KTVL Reporting Station
Clear Clear  
Wind Chill: 34°   Ceiling: Unl
Heat Index: 34°   Visibility: 10mi
Dew Point: 24°   Wind: 3mph
Humidity: 67%   Direction: 220°SW
Pressure: 30.44"   Gusts: NA
Location:  39.0164°N, 119.925°W
Report Text: KTVL 250153Z AUTO 22003KT 10SM CLR 01/M04 A3044 RMK AO2 SLP323 T00111044
Loading
Personal Weather Stations






























Interactive Weather Map New forecast layout! Learn more

10-Day Weather Forecast

Advertisements
Track Severe Weather on mobile